createdAt,value
2023-05-13T00:00:34.985Z,8.60
2023-05-13T00:03:02.931Z,9.68
2023-05-13T00:05:30.639Z,12.00
2023-05-13T00:08:02.166Z,10.45
2023-05-13T00:10:31.248Z,9.70
2023-05-13T00:12:59.176Z,12.98
2023-05-13T00:15:26.870Z,9.30
2023-05-13T00:17:54.571Z,13.35
2023-05-13T00:20:22.688Z,11.57
2023-05-13T00:22:51.302Z,13.02
2023-05-13T00:25:19.089Z,12.10
2023-05-13T00:27:48.121Z,13.05
2023-05-13T00:30:15.807Z,10.07
2023-05-13T00:32:44.468Z,12.98
2023-05-13T00:35:12.258Z,12.13
2023-05-13T00:37:43.164Z,11.48
2023-05-13T00:40:22.639Z,12.32
2023-05-13T00:42:59.193Z,12.50
2023-05-13T00:45:27.395Z,16.90
2023-05-13T00:47:55.497Z,18.38
2023-05-13T00:50:23.667Z,15.15
2023-05-13T00:52:52.260Z,17.20
2023-05-13T00:55:19.941Z,18.15
2023-05-13T00:57:47.809Z,21.27
2023-05-13T01:00:17.193Z,17.10
2023-05-13T01:02:48.181Z,19.88
2023-05-13T01:05:19.112Z,23.95
2023-05-13T01:07:54.675Z,23.15
2023-05-13T01:10:27.772Z,24.35
2023-05-13T01:12:58.197Z,25.30
2023-05-13T01:15:27.980Z,29.85
2023-05-13T01:17:57.529Z,30.08
2023-05-13T01:20:25.413Z,28.13
2023-05-13T01:22:54.688Z,28.25
2023-05-13T01:25:22.466Z,33.53
2023-05-13T01:27:50.249Z,37.47
2023-05-13T01:30:18.075Z,43.45
2023-05-13T01:32:46.809Z,43.53
2023-05-13T01:35:14.727Z,46.33
2023-05-13T01:37:42.647Z,42.80
2023-05-13T01:40:24.201Z,50.45
2023-05-13T01:43:01.849Z,44.30
2023-05-13T01:45:30.237Z,49.92
2023-05-13T01:47:58.002Z,62.53
2023-05-13T01:50:26.291Z,57.85
2023-05-13T01:52:55.223Z,55.88
2023-05-13T01:55:24.524Z,62.22
2023-05-13T01:57:52.170Z,61.05
2023-05-13T02:00:20.307Z,81.80
2023-05-13T02:02:48.280Z,66.07
2023-05-13T02:05:17.167Z,72.68
2023-05-13T02:07:44.969Z,65.35
2023-05-13T02:10:12.838Z,71.85
2023-05-13T02:12:41.855Z,86.50
2023-05-13T02:15:09.988Z,86.05
2023-05-13T02:17:37.705Z,75.63
2023-05-13T02:20:05.821Z,79.22
2023-05-13T02:22:34.225Z,75.47
2023-05-13T02:25:01.869Z,82.32
2023-05-13T02:27:29.491Z,73.15
2023-05-13T02:29:58.512Z,69.65
2023-05-13T02:32:26.322Z,81.60
2023-05-13T02:34:53.980Z,88.38
2023-05-13T02:37:21.742Z,84.72
2023-05-13T02:39:49.391Z,91.35
2023-05-13T02:42:17.044Z,100.38
2023-05-13T02:44:44.739Z,85.82
2023-05-13T02:47:13.743Z,89.28
2023-05-13T02:49:41.333Z,97.15
2023-05-13T02:52:09.146Z,89.80
2023-05-13T02:54:36.908Z,97.00
2023-05-13T02:57:04.724Z,91.75
2023-05-13T02:59:32.494Z,98.03
2023-05-13T03:02:00.349Z,102.20
2023-05-13T03:04:29.423Z,87.72
2023-05-13T03:06:57.088Z,96.05
2023-05-13T03:09:26.876Z,95.53
2023-05-13T03:11:55.189Z,98.32
2023-05-13T03:14:23.246Z,114.75
2023-05-13T03:16:50.875Z,113.25
2023-05-13T03:19:18.536Z,100.72
2023-05-13T03:21:47.679Z,106.63
2023-05-13T03:24:15.284Z,123.57
2023-05-13T03:26:42.990Z,112.22
2023-05-13T03:29:10.669Z,106.82
2023-05-13T03:31:38.376Z,121.05
2023-05-13T03:34:06.135Z,116.88
2023-05-13T03:36:33.824Z,111.80
2023-05-13T03:39:02.804Z,114.93
2023-05-13T03:41:30.801Z,107.32
2023-05-13T03:43:58.499Z,114.18
2023-05-13T03:46:27.425Z,110.25
2023-05-13T03:48:55.788Z,115.65
2023-05-13T03:51:23.448Z,117.80
2023-05-13T03:53:51.300Z,119.95
2023-05-13T03:56:21.572Z,109.60
2023-05-13T03:58:49.357Z,123.90
2023-05-13T04:01:17.039Z,111.68
2023-05-13T04:03:46.392Z,115.47
2023-05-13T04:06:14.618Z,109.55
2023-05-13T04:08:42.361Z,119.00
2023-05-13T04:11:10.086Z,123.25
2023-05-13T04:13:39.103Z,122.38
2023-05-13T04:16:06.789Z,124.22
2023-05-13T04:18:35.019Z,118.95
2023-05-13T04:21:07.290Z,115.63
2023-05-13T04:23:34.949Z,121.03
2023-05-13T04:26:02.662Z,120.85
2023-05-13T04:28:30.439Z,124.22
2023-05-13T04:30:59.446Z,130.93
2023-05-13T04:33:27.373Z,126.28
2023-05-13T04:35:55.130Z,104.07
2023-05-13T04:38:22.864Z,126.50
2023-05-13T04:40:50.825Z,115.93
2023-05-13T04:43:25.706Z,104.97
2023-05-13T04:45:53.610Z,106.25
2023-05-13T04:48:22.694Z,116.45
2023-05-13T04:50:52.531Z,117.65
2023-05-13T04:53:20.850Z,119.85
2023-05-13T04:55:49.471Z,115.50
2023-05-13T04:58:17.204Z,125.40
2023-05-13T05:00:44.914Z,109.80
2023-05-13T05:03:12.603Z,108.93
2023-05-13T05:05:42.002Z,108.97
2023-05-13T05:08:09.683Z,115.60
2023-05-13T05:10:37.339Z,113.13
2023-05-13T05:13:05.248Z,118.07
2023-05-13T05:15:33.091Z,114.15
2023-05-13T05:18:01.087Z,106.25
2023-05-13T05:20:29.310Z,105.57
2023-05-13T05:22:58.389Z,102.68
2023-05-13T05:25:26.118Z,93.60
2023-05-13T05:27:53.863Z,100.93
2023-05-13T05:30:21.971Z,103.72
2023-05-13T05:32:49.885Z,103.25
2023-05-13T05:35:19.850Z,91.30
2023-05-13T05:37:47.520Z,93.25
2023-05-13T05:40:16.613Z,93.90
2023-05-13T05:42:44.270Z,78.65
2023-05-13T05:45:12.008Z,72.30
2023-05-13T05:47:39.807Z,65.97
2023-05-13T05:50:07.861Z,54.80
2023-05-13T05:52:35.748Z,49.50
2023-05-13T05:55:03.483Z,48.33
2023-05-13T05:57:32.455Z,44.67
2023-05-13T06:00:00.194Z,37.53
2023-05-13T06:02:27.951Z,38.00
2023-05-13T06:04:55.907Z,36.83
2023-05-13T06:07:23.556Z,35.22
2023-05-13T06:09:51.244Z,33.35
2023-05-13T06:12:18.974Z,33.55
2023-05-13T06:17:47.927Z,37.35
2023-05-13T06:20:19.626Z,36.20
2023-05-13T06:22:48.314Z,30.17
2023-05-13T06:25:19.399Z,29.75
2023-05-13T06:27:47.048Z,28.92
2023-05-13T06:30:14.975Z,25.77
2023-05-13T06:32:50.267Z,25.60
2023-05-13T06:38:20.290Z,29.15
2023-05-13T06:40:47.959Z,25.05
2023-05-13T06:43:16.491Z,24.83
2023-05-13T06:45:46.090Z,28.08
2023-05-13T06:48:14.455Z,25.20
2023-05-13T06:50:42.159Z,25.95
2023-05-13T06:53:11.308Z,23.13
2023-05-13T06:55:41.827Z,27.63
2023-05-13T06:58:09.752Z,21.83
2023-05-13T07:00:38.073Z,23.80
2023-05-13T07:03:06.101Z,23.85
2023-05-13T07:05:33.868Z,23.05
2023-05-13T07:08:06.492Z,22.63
2023-05-13T07:10:34.950Z,22.88
2023-05-13T07:13:04.837Z,20.48
2023-05-13T07:15:32.391Z,25.85
2023-05-13T07:18:00.151Z,24.30
2023-05-13T07:20:27.827Z,24.40
2023-05-13T07:22:55.486Z,17.55
2023-05-13T07:25:23.133Z,20.95
2023-05-13T07:27:52.016Z,17.88
2023-05-13T07:30:21.484Z,20.33
2023-05-13T07:32:49.931Z,20.23
2023-05-13T07:35:18.660Z,22.70
2023-05-13T07:37:46.379Z,19.73
2023-05-13T07:40:14.464Z,19.08
2023-05-13T07:42:42.181Z,17.33
2023-05-13T07:45:10.400Z,15.65
2023-05-13T07:47:40.221Z,19.00
2023-05-13T07:50:09.490Z,15.05
2023-05-13T07:52:37.194Z,13.65
2023-05-13T07:55:05.722Z,11.30
2023-05-13T07:57:33.382Z,11.48
2023-05-13T08:00:01.207Z,10.32
2023-05-13T08:02:34.854Z,12.10
2023-05-13T08:05:04.329Z,16.55
2023-05-13T08:07:32.091Z,11.02
2023-05-13T08:09:59.803Z,10.65
2023-05-13T08:12:27.603Z,9.18
2023-05-13T08:14:55.238Z,10.65
2023-05-13T08:17:22.985Z,11.13
2023-05-13T08:19:50.671Z,10.70
2023-05-13T08:22:19.653Z,11.95
2023-05-13T08:24:47.337Z,10.50
2023-05-13T08:27:15.149Z,12.07
2023-05-13T08:29:42.870Z,8.90
2023-05-13T08:32:10.976Z,9.93
2023-05-13T08:34:40.593Z,11.75
2023-05-13T08:37:08.270Z,9.48
2023-05-13T08:39:37.232Z,9.02
2023-05-13T08:42:05.348Z,11.30
2023-05-13T08:44:33.545Z,13.95
2023-05-13T08:47:04.543Z,13.20
2023-05-13T08:49:32.241Z,10.50
2023-05-13T08:51:59.933Z,11.93
2023-05-13T08:54:27.952Z,15.27
2023-05-13T08:56:57.194Z,15.93
2023-05-13T08:59:24.837Z,13.20
2023-05-13T09:01:53.749Z,13.32
2023-05-13T09:04:21.562Z,11.70
2023-05-13T09:06:49.409Z,15.23
2023-05-13T09:09:17.082Z,12.93
2023-05-13T09:11:48.041Z,15.02
2023-05-13T09:14:19.855Z,12.95
2023-05-13T09:16:48.468Z,14.65
2023-05-13T09:19:16.214Z,23.10
2023-05-13T09:21:44.901Z,22.05
2023-05-13T09:24:13.948Z,18.23
2023-05-13T09:26:43.116Z,21.38
2023-05-13T09:29:18.800Z,19.55
2023-05-13T09:31:46.936Z,19.60
2023-05-13T09:34:16.897Z,17.20
2023-05-13T09:36:44.551Z,18.75
2023-05-13T09:39:12.661Z,20.67
2023-05-13T09:41:40.511Z,23.13
2023-05-13T09:44:09.312Z,28.30
2023-05-13T09:46:38.336Z,31.55
2023-05-13T09:49:06.189Z,31.25
2023-05-13T09:51:33.953Z,30.92
2023-05-13T09:54:06.346Z,24.70
2023-05-13T09:56:34.867Z,20.70
2023-05-13T09:59:02.848Z,20.27
2023-05-13T10:01:41.573Z,21.77
2023-05-13T10:04:09.618Z,20.35
2023-05-13T10:06:37.889Z,28.50
2023-05-13T10:09:08.967Z,20.17
2023-05-13T10:11:37.073Z,19.42
2023-05-13T10:14:07.217Z,20.20
2023-05-13T10:16:45.661Z,21.38
2023-05-13T10:19:15.862Z,20.75
2023-05-13T10:21:44.136Z,23.15
2023-05-13T10:24:12.065Z,20.92
2023-05-13T10:26:41.817Z,22.55
2023-05-13T10:29:10.749Z,25.33
2023-05-13T10:31:38.928Z,23.58
2023-05-13T10:34:09.993Z,22.08
2023-05-13T10:36:51.782Z,25.20
2023-05-13T10:39:33.229Z,22.02
2023-05-13T10:42:21.089Z,18.05
2023-05-13T10:44:53.821Z,24.48
2023-05-13T10:47:21.742Z,22.27
2023-05-13T10:49:51.988Z,19.95
2023-05-13T10:52:21.101Z,21.25
2023-05-13T10:55:09.443Z,24.15
2023-05-13T10:57:38.088Z,23.58
2023-05-13T11:00:16.450Z,18.35
2023-05-13T11:02:44.477Z,26.15
2023-05-13T11:05:20.056Z,20.02
2023-05-13T11:07:57.409Z,23.20
2023-05-13T11:10:26.013Z,19.52
2023-05-13T11:13:24.827Z,17.98
2023-05-13T11:15:52.950Z,20.92
2023-05-13T11:18:22.780Z,20.58
2023-05-13T11:20:53.988Z,23.63
2023-05-13T11:23:28.314Z,26.52
2023-05-13T11:26:14.749Z,21.25
2023-05-13T11:28:59.955Z,18.33
2023-05-13T11:31:42.758Z,17.40
2023-05-13T11:34:11.278Z,23.55
2023-05-13T11:36:39.610Z,20.30
2023-05-13T11:39:11.201Z,18.33
2023-05-13T11:41:39.237Z,18.25
2023-05-13T11:44:07.706Z,28.27
2023-05-13T11:46:36.338Z,17.08
2023-05-13T11:49:07.160Z,19.77
2023-05-13T11:51:35.250Z,18.80
2023-05-13T11:54:03.874Z,20.02
2023-05-13T11:56:32.909Z,23.25
2023-05-13T11:59:20.845Z,18.10
2023-05-13T12:01:59.286Z,20.77
2023-05-13T12:04:28.915Z,28.40
2023-05-13T12:06:56.653Z,23.05
2023-05-13T12:09:24.671Z,23.95
2023-05-13T12:11:54.205Z,19.02
2023-05-13T12:14:22.064Z,14.63
2023-05-13T12:16:49.899Z,21.58
2023-05-13T12:19:17.769Z,25.55
2023-05-13T12:21:45.447Z,14.40
2023-05-13T12:24:19.871Z,19.00
2023-05-13T12:26:47.649Z,14.40
2023-05-13T12:29:17.034Z,21.08
2023-05-13T12:32:03.290Z,18.55
2023-05-13T12:34:32.842Z,28.65
2023-05-13T12:37:10.442Z,19.35
2023-05-13T12:39:38.362Z,16.60
2023-05-13T12:42:06.458Z,17.80
2023-05-13T12:44:35.437Z,20.30
2023-05-13T12:47:03.646Z,21.70
2023-05-13T12:49:31.649Z,20.98
2023-05-13T12:51:59.337Z,18.40
2023-05-13T12:54:27.091Z,22.63
2023-05-13T12:56:54.771Z,16.27
2023-05-13T12:59:22.570Z,23.73
2023-05-13T13:01:51.611Z,19.98
2023-05-13T13:04:19.374Z,20.77
2023-05-13T13:06:47.365Z,20.30
2023-05-13T13:09:16.307Z,20.65
2023-05-13T13:11:44.006Z,18.52
2023-05-13T13:14:11.876Z,21.15
2023-05-13T13:16:39.675Z,23.10
2023-05-13T13:19:08.739Z,24.48
2023-05-13T13:21:36.482Z,19.40
2023-05-13T13:24:04.125Z,20.05
2023-05-13T13:26:33.172Z,26.75
2023-05-13T13:29:00.866Z,21.02
2023-05-13T13:31:28.758Z,21.10
2023-05-13T13:33:58.622Z,25.73
2023-05-13T13:36:27.729Z,23.60
2023-05-13T13:38:55.574Z,26.60
2023-05-13T13:41:25.558Z,27.08
2023-05-13T13:43:53.217Z,24.95
2023-05-13T13:46:21.148Z,23.77
2023-05-13T13:48:48.929Z,26.67
2023-05-13T13:51:16.672Z,25.80
2023-05-13T13:53:45.864Z,26.98
2023-05-13T13:56:13.698Z,23.50
2023-05-13T13:58:41.723Z,24.67
2023-05-13T14:01:09.558Z,22.38
2023-05-13T14:03:37.333Z,21.52
2023-05-13T14:06:05.406Z,26.80
2023-05-13T14:08:33.246Z,22.55
2023-05-13T14:11:02.314Z,20.65
2023-05-13T14:13:29.982Z,21.35
2023-05-13T14:15:57.705Z,20.70
2023-05-13T14:18:25.397Z,24.23
2023-05-13T14:20:53.227Z,21.48
2023-05-13T14:23:21.467Z,24.23
2023-05-13T14:25:49.167Z,15.95
2023-05-13T14:28:18.402Z,19.35
2023-05-13T14:30:46.192Z,22.73
2023-05-13T14:33:18.239Z,17.10
2023-05-13T14:35:46.102Z,25.40
2023-05-13T14:38:14.426Z,20.65
2023-05-13T14:40:42.157Z,16.02
2023-05-13T14:43:10.512Z,19.20
2023-05-13T14:45:39.688Z,18.30
2023-05-13T14:48:07.553Z,21.13
2023-05-13T14:50:36.669Z,17.00
2023-05-13T14:53:04.803Z,21.25
2023-05-13T14:55:32.470Z,27.25
2023-05-13T14:58:01.245Z,22.52
2023-05-13T15:00:28.964Z,18.63
2023-05-13T15:02:58.483Z,21.42
2023-05-13T15:05:26.905Z,17.42
2023-05-13T15:07:54.687Z,17.55
2023-05-13T15:10:22.544Z,17.08
2023-05-13T15:12:50.546Z,31.27
2023-05-13T15:15:18.724Z,19.55
2023-05-13T15:17:46.523Z,16.10
2023-05-13T15:20:15.578Z,18.20
2023-05-13T15:22:43.241Z,17.48
2023-05-13T15:25:11.107Z,18.23
2023-05-13T15:27:38.866Z,27.35
2023-05-13T15:30:07.401Z,23.83
2023-05-13T15:32:35.094Z,18.08
2023-05-13T15:35:02.888Z,17.80
2023-05-13T15:37:31.964Z,22.52
2023-05-13T15:39:59.597Z,18.60
2023-05-13T15:42:27.685Z,18.08
2023-05-13T15:44:55.322Z,15.50
2023-05-13T15:47:23.234Z,18.92
2023-05-13T15:49:53.457Z,15.55
2023-05-13T15:52:21.162Z,17.90
2023-05-13T15:54:50.447Z,21.45
2023-05-13T15:57:19.237Z,11.65
2023-05-13T15:59:47.272Z,20.15
2023-05-13T16:02:16.226Z,18.88
2023-05-13T16:04:44.030Z,14.80
2023-05-13T16:07:12.097Z,19.08
2023-05-13T16:09:39.831Z,18.50
2023-05-13T16:12:09.317Z,17.70
2023-05-13T16:14:36.944Z,17.27
2023-05-13T16:17:04.862Z,13.18
2023-05-13T16:19:32.528Z,15.68
2023-05-13T16:22:00.187Z,17.83
2023-05-13T16:24:27.841Z,18.25
2023-05-13T16:26:58.222Z,19.15
2023-05-13T16:29:28.200Z,17.20
2023-05-13T16:31:56.202Z,21.60
2023-05-13T16:34:26.450Z,17.35
2023-05-13T16:36:54.085Z,17.80
2023-05-13T16:39:24.206Z,14.45
2023-05-13T16:41:52.041Z,14.95
2023-05-13T16:44:22.880Z,17.33
2023-05-13T16:46:51.956Z,19.88
2023-05-13T16:49:21.873Z,22.10
2023-05-13T16:51:49.878Z,21.25
2023-05-13T16:54:17.566Z,12.75
2023-05-13T16:56:48.721Z,22.70
2023-05-13T16:59:20.029Z,22.45
2023-05-13T17:01:47.753Z,15.48
2023-05-13T17:04:17.018Z,17.55
2023-05-13T17:06:44.857Z,18.17
2023-05-13T17:09:12.783Z,18.10
2023-05-13T17:11:40.797Z,18.80
2023-05-13T17:14:14.262Z,20.80
2023-05-13T17:16:42.563Z,20.13
2023-05-13T17:19:10.704Z,14.43
2023-05-13T17:21:39.947Z,19.67
2023-05-13T17:24:07.870Z,18.83
2023-05-13T17:26:37.564Z,19.05
2023-05-13T17:29:06.281Z,18.42
2023-05-13T17:31:34.482Z,19.52
2023-05-13T17:34:02.145Z,23.70
2023-05-13T17:36:29.838Z,23.52
2023-05-13T17:38:58.869Z,18.08
2023-05-13T17:41:26.579Z,16.60
2023-05-13T17:43:54.277Z,16.92
2023-05-13T17:46:28.304Z,23.10
2023-05-13T17:48:56.439Z,18.55
2023-05-13T17:51:24.074Z,20.25
2023-05-13T17:53:52.107Z,21.17
2023-05-13T17:56:21.463Z,26.73
2023-05-13T17:58:51.449Z,18.83
2023-05-13T18:01:21.919Z,19.70
2023-05-13T18:03:49.712Z,22.30
2023-05-13T18:06:17.807Z,24.27
2023-05-13T18:08:45.958Z,28.10
2023-05-13T18:11:16.522Z,27.55
2023-05-13T18:13:45.790Z,22.83
2023-05-13T18:16:14.371Z,21.05
2023-05-13T18:18:42.233Z,28.88
2023-05-13T18:21:10.781Z,32.22
2023-05-13T18:23:38.488Z,23.27
2023-05-13T18:26:06.163Z,25.88
2023-05-13T18:28:33.966Z,23.27
2023-05-13T18:31:07.346Z,27.25
2023-05-13T18:33:35.076Z,26.95
2023-05-13T18:36:05.231Z,35.00
2023-05-13T18:38:33.420Z,28.90
2023-05-13T18:41:03.351Z,26.60
2023-05-13T18:43:31.201Z,29.35
2023-05-13T18:45:59.243Z,23.10
2023-05-13T18:48:28.321Z,28.95
2023-05-13T18:50:56.179Z,32.85
2023-05-13T18:53:23.786Z,30.38
2023-05-13T18:55:51.548Z,30.83
2023-05-13T18:58:19.176Z,25.98
2023-05-13T19:00:46.874Z,30.23
2023-05-13T19:03:14.642Z,28.67
2023-05-13T19:05:44.733Z,33.83
2023-05-13T19:08:12.357Z,38.72
2023-05-13T19:10:40.691Z,34.30
2023-05-13T19:13:08.753Z,34.72
2023-05-13T19:15:36.788Z,34.30
2023-05-13T19:18:04.758Z,34.55
2023-05-13T19:20:32.583Z,29.60
2023-05-13T19:23:01.588Z,30.80
2023-05-13T19:25:29.403Z,34.83
2023-05-13T19:27:57.313Z,34.05
2023-05-13T19:30:26.245Z,34.08
2023-05-13T19:32:54.041Z,35.88
2023-05-13T19:38:10.043Z,31.55
2023-05-13T19:40:39.459Z,34.03
2023-05-13T19:43:07.467Z,35.10
2023-05-13T19:45:35.450Z,42.70
2023-05-13T19:48:03.437Z,35.40
2023-05-13T19:50:31.166Z,39.50
2023-05-13T19:52:58.898Z,48.03
2023-05-13T19:55:28.535Z,41.67
2023-05-13T19:57:56.435Z,33.92
2023-05-13T20:00:24.348Z,48.95
2023-05-13T20:02:52.264Z,41.75
2023-05-13T20:05:20.019Z,50.45
2023-05-13T20:07:47.629Z,51.15
2023-05-13T20:10:15.358Z,50.28
2023-05-13T20:12:45.771Z,46.15
2023-05-13T20:15:13.422Z,51.42
2023-05-13T20:17:41.650Z,48.10
2023-05-13T20:20:09.999Z,41.30
2023-05-13T20:22:38.092Z,50.33
2023-05-13T20:25:06.054Z,47.92
2023-05-13T20:27:33.708Z,56.03
2023-05-13T20:30:02.946Z,51.13
2023-05-13T20:32:31.148Z,48.65
2023-05-13T20:34:58.934Z,58.25
2023-05-13T20:37:27.184Z,57.83
2023-05-13T20:39:54.892Z,51.70
2023-05-13T20:42:22.855Z,56.60
2023-05-13T20:44:50.925Z,56.80
2023-05-13T20:47:21.566Z,62.63
2023-05-13T20:49:49.227Z,59.53
2023-05-13T20:52:17.049Z,55.55
2023-05-13T20:54:44.798Z,64.35
2023-05-13T20:57:12.552Z,55.28
2023-05-13T20:59:40.213Z,61.75
2023-05-13T21:02:08.130Z,60.60
2023-05-13T21:04:37.114Z,62.40
2023-05-13T21:07:06.689Z,57.33
2023-05-13T21:09:34.553Z,61.05
2023-05-13T21:12:02.179Z,60.83
2023-05-13T21:14:29.831Z,65.25
2023-05-13T21:16:57.694Z,55.95
2023-05-13T21:19:26.138Z,60.20
2023-05-13T21:21:55.161Z,57.03
2023-05-13T21:24:22.877Z,65.20
2023-05-13T21:26:50.794Z,62.67
2023-05-13T21:29:19.127Z,66.13
2023-05-13T21:31:47.709Z,70.07
2023-05-13T21:34:15.552Z,61.95
2023-05-13T21:36:43.206Z,71.68
2023-05-13T21:39:12.155Z,71.30
2023-05-13T21:41:40.062Z,74.22
2023-05-13T21:44:07.869Z,73.53
2023-05-13T21:46:35.560Z,74.63
2023-05-13T21:49:03.631Z,74.85
2023-05-13T21:51:32.662Z,71.05
2023-05-13T21:54:00.599Z,62.75
2023-05-13T21:56:29.721Z,82.00
2023-05-13T21:58:57.403Z,73.55
2023-05-13T22:01:25.264Z,75.95
2023-05-13T22:03:53.046Z,85.60
2023-05-13T22:06:20.821Z,70.32
2023-05-13T22:08:49.070Z,73.50
2023-05-13T22:11:16.836Z,94.10
2023-05-13T22:13:46.025Z,83.35
2023-05-13T22:16:14.647Z,77.70
2023-05-13T22:18:42.689Z,72.18
2023-05-13T22:21:11.634Z,74.88
2023-05-13T22:23:39.331Z,74.47
2023-05-13T22:26:06.946Z,75.60
2023-05-13T22:28:34.699Z,73.13
2023-05-13T22:31:03.722Z,69.68
2023-05-13T22:33:31.346Z,68.53
2023-05-13T22:35:59.364Z,69.72
2023-05-13T22:38:26.991Z,74.70
2023-05-13T22:40:54.598Z,74.95
2023-05-13T22:43:22.275Z,68.00
2023-05-13T22:45:49.962Z,76.80
2023-05-13T22:48:19.123Z,71.78
2023-05-13T22:50:46.876Z,71.63
2023-05-13T22:53:14.523Z,64.10
2023-05-13T22:55:42.349Z,76.20
2023-05-13T22:58:10.833Z,65.32
2023-05-13T23:00:38.604Z,73.20
2023-05-13T23:03:06.262Z,77.38
2023-05-13T23:05:35.287Z,63.85
2023-05-13T23:08:02.937Z,66.88
2023-05-13T23:10:30.776Z,75.82
2023-05-13T23:12:58.590Z,70.20
2023-05-13T23:15:26.325Z,78.25
2023-05-13T23:17:55.213Z,69.40
2023-05-13T23:20:23.045Z,67.40
2023-05-13T23:22:52.621Z,77.50
2023-05-13T23:25:21.125Z,65.35
2023-05-13T23:27:48.723Z,78.55
2023-05-13T23:30:16.675Z,63.00
2023-05-13T23:32:44.510Z,66.60
2023-05-13T23:35:12.257Z,67.15
2023-05-13T23:37:39.942Z,83.10
2023-05-13T23:40:10.007Z,60.63
2023-05-13T23:42:37.645Z,69.55
2023-05-13T23:45:05.665Z,71.43
2023-05-13T23:47:33.591Z,65.30
2023-05-13T23:50:01.251Z,81.40
2023-05-13T23:52:28.900Z,75.05
2023-05-13T23:54:56.573Z,69.50
2023-05-13T23:57:26.021Z,71.82
2023-05-13T23:59:53.682Z,73.65
